Time;durP1;ratioP1;P1;durP2;ratioP2;P2;SDS_P1;SDS_P2;PMS_P1;PMS_P2;Temp;Humidity;BMP_temperature;BMP_pressure;BME280_temperature;BME280_humidity;BME280_pressure;Samples;Min_cycle;Max_cycle;Signal;HPM_P1;HPM_P2
2021/09/27 00:01:42;;;;;;;7.57;6.97;;;21.00;41.30;;;;;;10469048;28;20256;-75
2021/09/27 00:06:46;;;;;;;7.37;6.77;;;21.00;41.30;;;;;;10483244;28;20224;-75
2021/09/27 00:11:50;;;;;;;7.40;6.80;;;21.00;42.00;;;;;;10492279;28;20319;-75
2021/09/27 00:16:53;;;;;;;7.87;7.13;;;20.90;41.60;;;;;;10485289;28;20239;-75
2021/09/27 00:21:58;;;;;;;8.40;7.70;;;20.80;41.70;;;;;;10482817;28;20235;-75
2021/09/27 00:27:01;;;;;;;8.17;7.57;;;20.60;42.40;;;;;;10480723;28;20239;-75
2021/09/27 00:32:05;;;;;;;7.80;7.20;;;20.60;42.10;;;;;;10485214;28;20238;-75
2021/09/27 00:37:10;;;;;;;8.60;7.90;;;20.50;42.50;;;;;;10491233;28;20243;-75
2021/09/27 00:42:13;;;;;;;9.40;8.50;;;20.50;43.20;;;;;;10477243;28;20243;-75
2021/09/27 00:47:16;;;;;;;9.07;8.27;;;20.50;42.60;;;;;;10490440;28;20228;-75
2021/09/27 00:52:21;;;;;;;8.13;7.37;;;20.50;42.50;;;;;;10497179;28;20229;-75
2021/09/27 00:57:27;;;;;;;7.73;7.13;;;20.40;43.30;;;;;;10479775;28;20280;-75
2021/09/27 01:02:30;;;;;;;6.77;6.27;;;20.40;43.60;;;;;;10466082;28;20233;-75
2021/09/27 01:07:46;;;;;;;7.87;7.13;;;20.30;42.70;;;;;;10480852;28;20212;-75
2021/09/27 01:13:08;;;;;;;7.87;7.27;;;20.30;44.10;;;;;;10475577;28;20797;-75
2021/09/27 01:18:26;;;;;;;9.23;8.47;;;20.30;44.20;;;;;;10474745;28;20235;-75
2021/09/27 01:24:18;;;;;;;8.37;7.67;;;20.20;44.30;;;;;;10480169;28;20237;-75
2021/09/27 01:29:44;;;;;;;8.40;7.70;;;20.20;43.40;;;;;;10476353;28;20212;-75
2021/09/27 01:35:01;;;;;;;8.43;7.63;;;20.20;44.30;;;;;;10479711;28;20221;-75
2021/09/27 01:40:11;;;;;;;8.00;7.30;;;20.10;44.50;;;;;;10493765;28;20231;-75
2021/09/27 01:45:21;;;;;;;7.77;7.07;;;20.20;44.30;;;;;;10475750;28;20316;-75
2021/09/27 01:50:31;;;;;;;7.63;6.93;;;20.20;44.20;;;;;;10471533;28;20278;-75
2021/09/27 01:55:40;;;;;;;7.50;6.83;;;20.20;44.30;;;;;;10481458;28;20225;-75
2021/09/27 02:00:47;;;;;;;7.37;6.77;;;20.20;44.10;;;;;;10499040;28;20303;-75
2021/09/27 02:06:02;;;;;;;8.53;7.73;;;20.20;43.90;;;;;;10487812;28;20224;-75
2021/09/27 02:11:13;;;;;;;7.50;6.90;;;20.20;44.50;;;;;;10468774;28;20695;-75
2021/09/27 02:16:21;;;;;;;7.80;7.10;;;20.30;44.50;;;;;;10478134;28;20239;-75
2021/09/27 02:21:31;;;;;;;7.80;7.20;;;20.30;44.10;;;;;;10505397;28;20230;-75
2021/09/27 02:26:35;;;;;;;7.47;6.87;;;20.30;44.60;;;;;;10501047;28;20220;-75
2021/09/27 02:31:44;;;;;;;7.57;6.97;;;20.30;43.40;;;;;;10486417;28;20225;-75
2021/09/27 02:36:56;;;;;;;8.03;7.23;;;20.30;44.20;;;;;;10480450;28;20788;-74
2021/09/27 02:42:04;;;;;;;6.67;6.13;;;20.30;44.60;;;;;;10484767;28;20246;-75
2021/09/27 02:47:12;;;;;;;7.00;6.50;;;20.20;44.30;;;;;;10493127;28;20232;-74
2021/09/27 02:52:19;;;;;;;7.63;7.03;;;20.20;44.20;;;;;;10488671;28;20756;-74
2021/09/27 02:57:57;;;;;;;7.30;6.70;;;20.20;44.50;;;;;;10483639;28;20274;-75
2021/09/27 03:03:09;;;;;;;7.70;7.03;;;20.20;44.50;;;;;;10466459;28;20574;-75
2021/09/27 03:08:42;;;;;;;7.60;6.83;;;20.20;44.80;;;;;;10487957;28;20304;-74
2021/09/27 03:13:57;;;;;;;8.37;7.57;;;20.20;44.90;;;;;;10493450;28;20659;-74
2021/09/27 03:19:16;;;;;;;7.63;7.00;;;20.20;44.90;;;;;;10498183;28;20607;-74
2021/09/27 03:24:36;;;;;;;7.33;6.73;;;20.20;44.80;;;;;;10482443;28;20231;-75
2021/09/27 03:29:50;;;;;;;7.57;6.97;;;20.20;44.50;;;;;;10485980;28;20224;-75
2021/09/27 03:35:02;;;;;;;7.23;6.63;;;20.20;44.70;;;;;;10482247;28;20743;-75
2021/09/27 03:40:33;;;;;;;7.50;6.90;;;20.30;44.80;;;;;;10473010;28;20312;-74
2021/09/27 03:45:47;;;;;;;8.27;7.50;;;20.30;44.60;;;;;;10475743;28;20340;-75
2021/09/27 03:50:56;;;;;;;8.20;7.50;;;20.30;44.70;;;;;;10479363;28;20588;-75
2021/09/27 03:56:06;;;;;;;8.40;7.70;;;20.30;44.60;;;;;;10483615;28;20719;-74
2021/09/27 04:01:14;;;;;;;8.63;7.83;;;20.20;44.50;;;;;;10486234;28;20224;-74
2021/09/27 04:06:36;;;;;;;7.33;6.73;;;20.20;44.40;;;;;;10482834;28;20648;-75
2021/09/27 04:11:49;;;;;;;8.77;7.93;;;20.20;44.70;;;;;;10480950;28;20230;-75
2021/09/27 04:17:03;;;;;;;8.70;8.00;;;20.20;44.70;;;;;;10473667;28;20224;-75
2021/09/27 04:22:13;;;;;;;9.87;8.87;;;20.20;44.70;;;;;;10474808;28;20251;-75
2021/09/27 04:27:31;;;;;;;10.33;9.33;;;20.10;44.60;;;;;;10489946;28;20232;-75
2021/09/27 04:32:52;;;;;;;9.93;9.13;;;20.00;45.00;;;;;;10486370;28;20227;-75
2021/09/27 04:37:55;;;;;;;9.60;8.73;;;20.00;45.10;;;;;;10479393;28;20624;-75
2021/09/27 04:43:17;;;;;;;9.90;9.00;;;19.90;44.00;;;;;;10474721;28;20705;-74
2021/09/27 04:48:36;;;;;;;12.10;10.80;;;19.80;45.20;;;;;;10479589;28;20216;-74
2021/09/27 04:54:10;;;;;;;12.10;10.90;;;19.70;45.70;;;;;;10481635;28;20232;-74
2021/09/27 04:59:27;;;;;;;12.93;11.13;;;19.70;45.90;;;;;;10480832;28;20228;-74
2021/09/27 05:04:44;;;;;;;14.47;12.97;;;19.60;46.10;;;;;;10477479;28;20240;-75
2021/09/27 05:10:02;;;;;;;12.27;10.33;;;19.60;46.40;;;;;;10479649;28;20231;-74
2021/09/27 05:15:23;;;;;;;14.17;12.67;;;19.60;46.50;;;;;;10465816;28;20230;-74
2021/09/27 05:20:43;;;;;;;15.93;14.33;;;19.50;46.80;;;;;;10483268;28;20216;-75
2021/09/27 05:26:21;;;;;;;14.60;13.20;;;19.50;46.80;;;;;;10472651;28;20260;-74
2021/09/27 05:31:41;;;;;;;15.43;13.83;;;19.50;46.70;;;;;;10475267;28;20220;-75
2021/09/27 05:37:04;;;;;;;18.43;15.53;;;19.60;47.30;;;;;;10486485;28;20228;-75
2021/09/27 05:42:15;;;;;;;17.07;15.37;;;19.60;47.50;;;;;;10478798;28;20234;-77
2021/09/27 05:47:31;;;;;;;16.90;15.20;;;19.60;46.90;;;;;;10485657;28;20224;-77
2021/09/27 05:52:42;;;;;;;16.67;14.87;;;19.60;47.40;;;;;;10492856;28;20243;-77
2021/09/27 05:57:52;;;;;;;17.50;15.17;;;19.60;46.90;;;;;;10483409;28;20236;-77
2021/09/27 06:03:30;;;;;;;16.00;14.30;;;19.70;46.80;;;;;;10479335;28;20243;-77
2021/09/27 06:08:40;;;;;;;17.30;15.47;;;19.70;47.20;;;;;;10481967;28;20224;-77
2021/09/27 06:13:47;;;;;;;16.43;14.73;;;19.80;46.80;;;;;;10489583;28;20232;-77
2021/09/27 06:19:04;;;;;;;17.63;15.83;;;19.80;46.80;;;;;;10487320;28;20230;-76
2021/09/27 06:24:21;;;;;;;16.03;14.33;;;19.90;47.60;;;;;;10483325;28;20233;-76
2021/09/27 06:29:33;;;;;;;18.67;16.57;;;19.90;47.70;;;;;;10482857;28;20235;-77
2021/09/27 06:34:43;;;;;;;17.93;16.10;;;19.90;47.70;;;;;;10511547;28;20320;-77
2021/09/27 06:39:47;;;;;;;18.43;16.63;;;19.90;47.80;;;;;;10491715;28;20236;-77
2021/09/27 06:44:52;;;;;;;16.70;14.90;;;19.90;46.80;;;;;;10490389;28;20236;-77
2021/09/27 06:49:57;;;;;;;16.63;14.97;;;19.90;46.70;;;;;;10487423;28;20594;-77
2021/09/27 06:55:00;;;;;;;17.17;15.47;;;19.90;47.40;;;;;;10483276;28;20229;-77
2021/09/27 07:00:05;;;;;;;17.83;15.93;;;19.90;46.90;;;;;;10487531;28;20239;-76
2021/09/27 07:05:11;;;;;;;18.53;16.67;;;19.90;47.80;;;;;;10485366;28;20258;-76
2021/09/27 07:10:18;;;;;;;18.27;16.37;;;20.00;48.50;;;;;;10488967;28;20224;-77
2021/09/27 07:15:21;;;;;;;17.53;15.80;;;20.00;48.20;;;;;;10482182;28;20715;-77
2021/09/27 07:20:27;;;;;;;16.90;14.97;;;20.00;47.40;;;;;;10483457;28;20246;-77
2021/09/27 07:25:32;;;;;;;16.17;14.47;;;20.00;48.40;;;;;;10479623;28;20227;-78
2021/09/27 07:30:37;;;;;;;16.67;15.03;;;20.00;48.20;;;;;;10476463;28;20228;-74
2021/09/27 07:35:42;;;;;;;16.60;14.07;;;20.10;48.20;;;;;;10471410;28;20319;-75
2021/09/27 07:40:45;;;;;;;16.17;14.57;;;20.10;48.40;;;;;;10478875;28;20231;-75
2021/09/27 07:45:48;;;;;;;15.67;14.07;;;20.20;47.70;;;;;;10464514;28;20228;-77
2021/09/27 07:50:55;;;;;;;14.57;13.17;;;20.30;47.70;;;;;;10478405;28;20224;-76
2021/09/27 07:55:58;;;;;;;13.63;12.27;;;20.30;48.10;;;;;;10478345;28;20830;-75
2021/09/27 08:01:03;;;;;;;15.63;14.07;;;20.30;47.40;;;;;;10477213;28;20254;-77
2021/09/27 08:06:08;;;;;;;14.33;13.00;;;20.50;48.20;;;;;;10480258;28;20700;-77
2021/09/27 08:11:11;;;;;;;14.80;13.20;;;20.50;48.40;;;;;;10486245;28;20225;-77
2021/09/27 08:16:14;;;;;;;14.17;12.67;;;20.60;47.70;;;;;;10475787;28;20612;-78
2021/09/27 08:21:20;;;;;;;15.07;13.67;;;20.70;47.70;;;;;;10470980;28;20565;-76
2021/09/27 08:26:24;;;;;;;16.00;14.53;;;20.80;48.10;;;;;;10481536;28;20230;-78
2021/09/27 08:31:27;;;;;;;15.00;13.60;;;20.90;47.40;;;;;;10472791;28;20259;-78
2021/09/27 08:36:32;;;;;;;15.20;13.83;;;20.90;47.40;;;;;;10481875;28;20234;-78
2021/09/27 08:41:48;;;;;;;15.03;13.50;;;21.00;47.70;;;;;;10475419;28;20310;-78
2021/09/27 08:46:55;;;;;;;14.63;13.33;;;21.10;48.30;;;;;;10472850;28;20239;-79
2021/09/27 08:52:00;;;;;;;13.47;12.17;;;21.20;47.60;;;;;;10481567;28;20228;-79
2021/09/27 08:57:09;;;;;;;13.93;12.63;;;21.20;47.80;;;;;;10465176;28;20227;-79
2021/09/27 09:02:23;;;;;;;13.37;12.17;;;21.30;47.60;;;;;;10475513;28;20220;-78
2021/09/27 09:07:29;;;;;;;13.17;11.97;;;21.40;47.70;;;;;;10475729;28;20235;-80
2021/09/27 09:12:36;;;;;;;12.07;11.07;;;21.50;47.60;;;;;;10488103;28;20256;-78
2021/09/27 09:17:45;;;;;;;12.33;11.33;;;21.50;47.30;;;;;;10480436;28;20308;-79
2021/09/27 09:22:50;;;;;;;11.37;10.33;;;21.60;47.60;;;;;;10488658;28;20314;-78
2021/09/27 09:27:54;;;;;;;11.80;10.70;;;21.70;47.10;;;;;;10486574;28;20228;-79
2021/09/27 09:32:57;;;;;;;11.73;10.63;;;21.80;47.00;;;;;;10489588;28;20228;-78
2021/09/27 09:38:07;;;;;;;11.53;10.53;;;21.90;46.90;;;;;;10487702;28;20232;-78
2021/09/27 09:43:13;;;;;;;12.97;11.67;;;22.00;47.60;;;;;;10495792;28;20233;-71
2021/09/27 09:48:20;;;;;;;12.00;10.97;;;22.10;47.00;;;;;;10480565;28;20311;-76
2021/09/27 09:53:28;;;;;;;11.73;10.63;;;22.30;47.00;;;;;;10486854;28;20227;-76
2021/09/27 09:58:39;;;;;;;12.20;11.20;;;22.40;46.40;;;;;;10488321;28;20239;-76
2021/09/27 10:03:46;;;;;;;12.37;11.23;;;22.50;45.50;;;;;;10507387;28;20224;-76
2021/09/27 10:08:56;;;;;;;12.40;11.23;;;22.50;45.70;;;;;;10508501;28;20714;-76
2021/09/27 10:14:00;;;;;;;11.83;10.83;;;22.50;45.50;;;;;;10507565;28;20272;-76
2021/09/27 10:19:17;;;;;;;12.87;11.67;;;22.50;45.40;;;;;;10490709;28;20253;-74
2021/09/27 10:24:32;;;;;;;11.73;10.83;;;22.50;45.60;;;;;;10485811;28;20247;-76
2021/09/27 10:29:37;;;;;;;11.33;10.23;;;22.60;45.20;;;;;;10487450;28;20228;-75
2021/09/27 10:34:40;;;;;;;10.93;10.03;;;22.60;45.10;;;;;;10487657;28;20227;-76
2021/09/27 10:39:46;;;;;;;11.13;10.23;;;22.50;45.20;;;;;;10478187;28;20240;-76
2021/09/27 10:44:52;;;;;;;11.77;10.77;;;22.60;45.30;;;;;;10473064;28;20240;-77
2021/09/27 10:50:01;;;;;;;11.23;10.33;;;22.80;45.10;;;;;;10475350;28;20228;-76
2021/09/27 10:55:17;;;;;;;10.37;9.57;;;22.90;45.00;;;;;;10471924;28;20234;-77
2021/09/27 11:00:33;;;;;;;9.80;8.77;;;23.00;44.70;;;;;;10441958;28;20224;-76
2021/09/27 11:05:54;;;;;;;10.13;9.33;;;23.10;44.50;;;;;;10475970;28;20273;-80
2021/09/27 11:10:59;;;;;;;9.83;9.03;;;23.30;44.00;;;;;;10478909;28;20220;-77
2021/09/27 11:16:07;;;;;;;10.53;9.63;;;23.40;44.00;;;;;;10484234;28;20236;-77
2021/09/27 11:21:22;;;;;;;10.40;9.57;;;23.50;44.30;;;;;;10471782;28;20232;-78
2021/09/27 11:26:33;;;;;;;10.53;9.63;;;23.60;44.00;;;;;;10478811;28;20234;-76
2021/09/27 11:31:40;;;;;;;10.07;9.17;;;23.60;43.60;;;;;;10486230;28;20216;-77
2021/09/27 11:37:08;;;;;;;10.90;9.90;;;23.80;43.40;;;;;;10480335;28;20274;-80
2021/09/27 11:42:51;;;;;;;9.17;8.37;;;23.90;43.80;;;;;;10477156;28;20693;-75
2021/09/27 11:48:04;;;;;;;10.73;9.83;;;24.00;43.30;;;;;;10479045;28;20229;-75
2021/09/27 11:53:13;;;;;;;8.87;8.17;;;24.10;43.10;;;;;;10477559;28;20593;-75
2021/09/27 11:58:28;;;;;;;9.97;9.17;;;24.10;42.10;;;;;;10487602;28;20254;-75
2021/09/27 12:03:41;;;;;;;9.87;9.07;;;24.20;42.40;;;;;;10489814;28;20251;-75
2021/09/27 12:08:51;;;;;;;10.03;9.23;;;24.20;42.30;;;;;;10479599;28;20819;-75
2021/09/27 12:14:00;;;;;;;9.80;9.00;;;24.20;42.00;;;;;;10488454;28;20232;-75
2021/09/27 12:19:16;;;;;;;9.40;8.60;;;24.20;41.70;;;;;;10483718;28;20267;-75
2021/09/27 12:24:22;;;;;;;7.80;7.27;;;24.10;42.30;;;;;;10483951;28;21158;-75
2021/09/27 12:29:27;;;;;;;9.60;8.80;;;24.20;42.10;;;;;;10474312;28;20676;-76
2021/09/27 12:34:34;;;;;;;9.20;8.47;;;24.20;41.60;;;;;;10464835;28;20908;-76
2021/09/27 12:39:38;;;;;;;8.93;8.20;;;24.30;41.60;;;;;;10466957;28;20229;-76
2021/09/27 12:44:46;;;;;;;7.40;6.80;;;24.30;42.40;;;;;;10469479;28;20912;-76
2021/09/27 12:49:53;;;;;;;8.40;7.70;;;24.40;41.30;;;;;;10470150;28;20714;-76
2021/09/27 12:54:57;;;;;;;8.93;8.23;;;24.50;41.40;;;;;;10466457;28;20228;-77
2021/09/27 13:00:06;;;;;;;7.93;7.33;;;24.50;41.20;;;;;;10466081;28;20256;-80
2021/09/27 13:05:16;;;;;;;7.80;7.10;;;24.60;40.50;;;;;;10471435;28;20228;-76
2021/09/27 13:10:26;;;;;;;6.70;6.20;;;24.60;40.50;;;;;;10475556;28;21538;-76
2021/09/27 13:15:34;;;;;;;6.40;5.90;;;24.60;39.80;;;;;;10473803;28;20235;-77
2021/09/27 13:20:48;;;;;;;6.67;6.17;;;24.60;40.50;;;;;;10471126;28;20236;-76
2021/09/27 13:25:55;;;;;;;7.23;6.63;;;24.70;40.10;;;;;;10480378;28;20224;-77
2021/09/27 13:31:07;;;;;;;7.37;6.80;;;24.70;40.00;;;;;;10475203;28;20893;-76
2021/09/27 13:36:26;;;;;;;7.20;6.70;;;24.70;39.50;;;;;;10470064;28;20229;-77
2021/09/27 13:41:47;;;;;;;6.50;6.00;;;24.80;40.20;;;;;;10468758;28;20243;-77
2021/09/27 13:46:52;;;;;;;6.53;6.03;;;24.90;39.60;;;;;;10473156;28;20688;-76
2021/09/27 13:51:56;;;;;;;6.87;6.27;;;24.90;39.50;;;;;;10471753;28;20310;-77
2021/09/27 13:57:01;;;;;;;6.20;5.70;;;24.90;39.90;;;;;;10471990;28;20224;-80
2021/09/27 14:02:06;;;;;;;6.10;5.70;;;25.00;39.60;;;;;;10473040;28;20232;-80
2021/09/27 14:07:09;;;;;;;6.20;5.80;;;25.00;38.90;;;;;;10470780;28;20232;-76
2021/09/27 14:12:12;;;;;;;6.80;6.20;;;25.00;39.80;;;;;;10475409;28;20224;-76
2021/09/27 14:17:20;;;;;;;6.20;5.70;;;25.10;39.40;;;;;;10480421;28;20224;-77
2021/09/27 14:22:24;;;;;;;7.37;6.77;;;25.10;39.40;;;;;;10473954;28;20234;-76
2021/09/27 14:27:27;;;;;;;5.97;5.57;;;25.20;38.90;;;;;;10474101;28;20701;-76
2021/09/27 14:32:32;;;;;;;5.93;5.53;;;25.20;39.00;;;;;;10478749;28;20239;-76
2021/09/27 14:37:36;;;;;;;6.23;5.80;;;25.20;37.90;;;;;;10454773;28;20233;-77
2021/09/27 14:42:39;;;;;;;5.97;5.47;;;25.20;38.60;;;;;;10482666;28;20231;-76
2021/09/27 14:47:45;;;;;;;5.70;5.30;;;25.20;38.10;;;;;;10472507;28;20806;-76
2021/09/27 14:52:49;;;;;;;5.63;5.27;;;25.10;37.30;;;;;;10483652;28;20307;-75
2021/09/27 14:57:53;;;;;;;5.43;5.03;;;25.10;38.20;;;;;;10482380;28;20244;-77
2021/09/27 15:02:57;;;;;;;5.50;5.10;;;25.00;38.10;;;;;;10476095;28;20232;-77
2021/09/27 15:08:02;;;;;;;6.10;5.60;;;25.00;37.90;;;;;;10476448;28;20778;-76
2021/09/27 15:13:06;;;;;;;5.53;5.13;;;25.00;38.40;;;;;;10477883;28;20286;-76
2021/09/27 15:18:10;;;;;;;6.53;5.33;;;25.00;38.70;;;;;;10474867;28;20246;-76
2021/09/27 15:23:13;;;;;;;6.23;5.70;;;25.00;38.40;;;;;;10474272;28;20228;-76
2021/09/27 15:28:17;;;;;;;6.00;5.60;;;25.10;38.90;;;;;;10487407;28;20220;-75
2021/09/27 15:33:22;;;;;;;5.77;5.37;;;25.10;38.90;;;;;;10498331;28;20652;-75
2021/09/27 15:38:27;;;;;;;5.97;5.37;;;25.20;38.50;;;;;;10492945;28;20220;-76
2021/09/27 15:43:30;;;;;;;6.37;5.77;;;25.20;38.60;;;;;;10474041;28;20309;-75
2021/09/27 15:48:35;;;;;;;6.00;5.40;;;25.20;38.80;;;;;;10499002;28;20735;-76
2021/09/27 15:53:38;;;;;;;6.43;5.97;;;25.20;38.80;;;;;;10457193;28;20244;-76
2021/09/27 15:58:42;;;;;;;6.77;5.83;;;25.30;38.90;;;;;;10452987;28;20228;-76
2021/09/27 16:03:46;;;;;;;5.60;5.20;;;25.30;38.90;;;;;;10499967;28;20231;-75
2021/09/27 16:08:50;;;;;;;6.30;5.90;;;25.30;38.90;;;;;;10508799;28;20238;-76
2021/09/27 16:13:53;;;;;;;6.30;5.80;;;25.20;39.10;;;;;;10471091;28;20234;-76
2021/09/27 16:18:58;;;;;;;6.30;5.80;;;25.20;39.20;;;;;;10527945;28;20254;-76
2021/09/27 16:24:02;;;;;;;5.57;5.10;;;25.20;39.10;;;;;;10474251;28;20236;-76
2021/09/27 16:29:06;;;;;;;6.17;5.60;;;25.10;39.10;;;;;;10452236;28;20224;-76
2021/09/27 16:34:12;;;;;;;6.03;5.53;;;25.00;39.20;;;;;;10481306;28;20235;-76
2021/09/27 16:39:15;;;;;;;7.00;5.80;;;24.90;39.20;;;;;;10483108;28;20225;-76
2021/09/27 16:44:25;;;;;;;6.40;5.90;;;24.90;39.30;;;;;;10504557;28;20227;-76
2021/09/27 16:49:30;;;;;;;5.97;5.47;;;24.80;39.50;;;;;;10519454;28;20219;-76
2021/09/27 16:54:33;;;;;;;5.33;4.97;;;24.70;39.60;;;;;;10511386;28;20311;-76
2021/09/27 16:59:36;;;;;;;5.80;5.30;;;24.60;39.40;;;;;;10505673;28;20281;-76
2021/09/27 17:04:41;;;;;;;6.83;6.33;;;24.50;39.70;;;;;;10505544;28;20911;-76
2021/09/27 17:09:45;;;;;;;6.07;5.67;;;24.40;39.60;;;;;;10486693;28;20215;-76
2021/09/27 17:20:14;;;;;;;6.57;6.07;;;24.10;39.70;;;;;;10474205;28;20616;-76
2021/09/27 17:25:17;;;;;;;5.83;5.33;;;23.90;39.90;;;;;;10497024;28;20237;-76
2021/09/27 17:30:21;;;;;;;6.83;6.33;;;23.90;39.90;;;;;;10501852;28;20311;-76
2021/09/27 17:35:28;;;;;;;6.77;6.27;;;23.80;39.80;;;;;;10496741;28;20228;-76
2021/09/27 17:40:31;;;;;;;6.83;6.33;;;23.80;39.80;;;;;;10492507;28;20235;-76
2021/09/27 17:45:35;;;;;;;6.73;6.23;;;23.70;39.80;;;;;;10497304;28;20601;-76
2021/09/27 17:50:39;;;;;;;7.83;7.20;;;23.70;39.80;;;;;;10498135;28;20224;-76
2021/09/27 17:55:51;;;;;;;8.43;7.70;;;23.60;39.80;;;;;;10499629;28;20232;-76
2021/09/27 18:00:55;;;;;;;7.37;6.80;;;23.50;40.20;;;;;;10498175;28;20242;-76
2021/09/27 18:06:01;;;;;;;6.23;5.67;;;23.50;40.10;;;;;;10499452;28;20228;-76
2021/09/27 18:11:07;;;;;;;6.43;5.93;;;23.40;40.70;;;;;;10500083;28;20251;-76
2021/09/27 18:16:11;;;;;;;6.67;6.07;;;23.30;40.70;;;;;;10499110;28;20228;-76
2021/09/27 18:21:16;;;;;;;7.73;7.07;;;23.30;40.50;;;;;;10513459;28;20232;-77
2021/09/27 18:26:19;;;;;;;5.93;5.43;;;23.30;41.00;;;;;;10536553;28;20593;-77
2021/09/27 18:31:22;;;;;;;6.87;6.37;;;23.20;40.60;;;;;;10524744;28;20228;-77
2021/09/27 18:36:27;;;;;;;7.30;6.70;;;23.20;40.80;;;;;;10471056;28;20232;-77
2021/09/27 18:41:32;;;;;;;7.90;7.20;;;23.20;41.10;;;;;;10468384;28;20238;-77
2021/09/27 18:46:36;;;;;;;7.20;6.47;;;23.10;40.90;;;;;;10460543;28;20242;-78
2021/09/27 18:51:41;;;;;;;6.40;5.80;;;23.10;41.00;;;;;;10457099;28;20229;-78
2021/09/27 18:56:44;;;;;;;6.80;6.30;;;23.10;41.00;;;;;;10462048;28;20228;-78
2021/09/27 19:01:48;;;;;;;5.80;5.40;;;23.10;41.00;;;;;;10455874;28;20286;-78
2021/09/27 19:06:53;;;;;;;6.63;6.03;;;23.10;41.00;;;;;;10459053;28;20232;-78
2021/09/27 19:11:57;;;;;;;7.40;6.80;;;23.00;41.30;;;;;;10461897;28;20226;-77
2021/09/27 19:17:00;;;;;;;8.23;7.53;;;22.90;41.00;;;;;;10494784;28;20939;-78
2021/09/27 19:22:06;;;;;;;7.27;6.67;;;22.90;41.30;;;;;;10469622;28;20221;-81
2021/09/27 19:27:09;;;;;;;8.00;7.30;;;22.80;41.30;;;;;;10461388;28;20236;-80
2021/09/27 19:32:12;;;;;;;8.13;7.50;;;22.80;41.30;;;;;;10462891;28;20228;-79
2021/09/27 19:37:19;;;;;;;8.97;8.17;;;22.70;41.40;;;;;;10460527;28;21129;-79
2021/09/27 19:42:23;;;;;;;7.70;6.83;;;22.60;41.80;;;;;;10469170;28;20307;-80
2021/09/27 19:47:26;;;;;;;7.53;6.77;;;22.50;41.50;;;;;;10473964;28;20228;-79
2021/09/27 19:52:31;;;;;;;9.07;8.37;;;22.40;41.60;;;;;;10472095;28;20605;-79
2021/09/27 19:57:34;;;;;;;9.23;8.43;;;22.40;42.00;;;;;;10478941;28;20242;-79
2021/09/27 20:02:37;;;;;;;9.17;8.27;;;22.30;41.80;;;;;;10481301;28;20227;-79
2021/09/27 20:07:42;;;;;;;8.77;7.93;;;22.20;41.90;;;;;;10479965;28;20775;-78
2021/09/27 20:12:46;;;;;;;8.33;7.63;;;22.20;42.40;;;;;;10476853;28;20231;-80
2021/09/27 20:17:50;;;;;;;8.67;7.97;;;22.20;42.30;;;;;;10475930;28;20217;-79
2021/09/27 20:22:54;;;;;;;9.30;8.40;;;22.20;42.40;;;;;;10478427;28;20316;-79
2021/09/27 20:27:59;;;;;;;8.73;8.03;;;22.20;42.80;;;;;;10478415;28;20220;-79
2021/09/27 20:33:03;;;;;;;8.90;8.13;;;22.20;42.80;;;;;;10477778;28;20228;-79
2021/09/27 20:38:11;;;;;;;7.20;6.70;;;22.10;42.40;;;;;;10475942;28;20228;-79
2021/09/27 20:43:14;;;;;;;7.37;6.67;;;22.10;42.90;;;;;;10478028;28;20224;-79
2021/09/27 20:48:19;;;;;;;8.63;7.93;;;22.00;42.40;;;;;;10479840;28;20235;-78
2021/09/27 20:53:24;;;;;;;8.70;7.90;;;22.00;42.70;;;;;;10474701;28;20256;-79
2021/09/27 20:58:27;;;;;;;8.37;7.60;;;22.00;42.80;;;;;;10480360;28;20220;-79
2021/09/27 21:03:31;;;;;;;7.90;7.17;;;21.90;42.50;;;;;;10491264;28;20235;-79
2021/09/27 21:08:36;;;;;;;7.50;6.80;;;21.80;42.60;;;;;;10498440;28;21135;-78
2021/09/27 21:13:39;;;;;;;8.80;8.00;;;21.80;43.10;;;;;;10503797;28;20216;-79
2021/09/27 21:18:42;;;;;;;7.70;7.00;;;21.80;42.90;;;;;;10496330;28;20236;-79
2021/09/27 21:23:47;;;;;;;8.73;7.57;;;21.70;42.90;;;;;;10501959;28;20219;-79
2021/09/27 21:28:50;;;;;;;9.43;8.53;;;21.70;43.60;;;;;;10492058;28;20220;-79
2021/09/27 21:33:53;;;;;;;9.40;7.83;;;21.60;43.30;;;;;;10491260;28;20223;-78
2021/09/27 21:38:58;;;;;;;8.03;7.43;;;21.50;43.20;;;;;;10486749;28;20228;-78
2021/09/27 21:44:01;;;;;;;7.60;6.90;;;21.50;43.80;;;;;;10488580;28;20700;-79
2021/09/27 21:49:04;;;;;;;8.03;7.27;;;21.50;43.60;;;;;;10497214;28;20231;-79
2021/09/27 21:54:09;;;;;;;7.90;7.20;;;21.50;43.70;;;;;;10487708;28;20239;-80
2021/09/27 21:59:12;;;;;;;7.77;7.07;;;21.50;44.00;;;;;;10493806;28;20228;-79
2021/09/27 22:04:15;;;;;;;7.47;6.87;;;21.50;43.70;;;;;;10488693;28;20228;-79
2021/09/27 22:09:20;;;;;;;7.53;6.83;;;21.50;43.60;;;;;;10495740;28;20228;-79
2021/09/27 22:14:23;;;;;;;7.23;6.53;;;21.40;44.00;;;;;;10484296;28;20303;-79
2021/09/27 22:19:26;;;;;;;7.60;6.87;;;21.30;43.80;;;;;;10495677;28;20263;-80
2021/09/27 22:24:31;;;;;;;7.47;6.77;;;21.30;43.90;;;;;;10482217;28;20240;-78
2021/09/27 22:29:34;;;;;;;7.73;7.03;;;21.20;44.40;;;;;;10488151;28;20232;-79
2021/09/27 22:34:39;;;;;;;8.30;7.50;;;21.20;44.20;;;;;;10489954;28;20741;-79
2021/09/27 22:39:45;;;;;;;8.33;7.63;;;21.20;44.40;;;;;;10485057;28;20700;-79
2021/09/27 22:44:48;;;;;;;8.60;6.73;;;21.20;44.70;;;;;;10501464;28;20700;-79
2021/09/27 22:49:52;;;;;;;7.50;6.90;;;21.20;44.30;;;;;;10486787;28;20220;-79
2021/09/27 22:54:56;;;;;;;8.00;7.30;;;21.20;44.40;;;;;;10483691;28;20225;-79
2021/09/27 22:59:59;;;;;;;7.60;7.00;;;21.20;44.60;;;;;;10485613;28;20314;-79
2021/09/27 23:05:03;;;;;;;7.10;6.57;;;21.10;44.30;;;;;;10490716;28;20235;-79
2021/09/27 23:10:10;;;;;;;7.50;6.87;;;21.10;44.30;;;;;;10473894;28;20239;-79
2021/09/27 23:15:15;;;;;;;7.57;6.80;;;21.10;44.90;;;;;;10485175;28;20220;-78
2021/09/27 23:20:18;;;;;;;7.37;6.77;;;21.00;44.50;;;;;;10491379;28;20675;-79
2021/09/27 23:25:23;;;;;;;7.43;6.73;;;21.00;44.40;;;;;;10484582;28;20220;-79
2021/09/27 23:30:26;;;;;;;6.77;6.23;;;21.00;44.80;;;;;;10486615;28;20978;-79
2021/09/27 23:35:29;;;;;;;6.90;6.23;;;21.00;44.60;;;;;;10484707;28;20238;-79
2021/09/27 23:40:34;;;;;;;7.60;6.90;;;20.90;44.50;;;;;;10488389;28;20230;-79
2021/09/27 23:45:37;;;;;;;7.30;6.70;;;20.90;44.90;;;;;;10488540;28;20238;-79
2021/09/27 23:50:41;;;;;;;7.57;6.97;;;20.80;44.50;;;;;;10485747;28;20236;-79
2021/09/27 23:55:47;;;;;;;7.27;6.67;;;20.80;44.40;;;;;;10486346;28;20220;-80
